sensor_id;sensor_type;location;lat;lon;timestamp;P1;durP1;ratioP1;P2;durP2;ratioP2
32198;SDS011;73953;42.656;21.156;2023-11-21T00:01:07;33.97;;;21.20;;
32198;SDS011;73953;42.656;21.156;2023-11-21T00:03:35;35.20;;;21.50;;
32198;SDS011;73953;42.656;21.156;2023-11-21T00:06:03;33.92;;;19.60;;
32198;SDS011;73953;42.656;21.156;2023-11-21T00:08:30;30.55;;;18.52;;
32198;SDS011;73953;42.656;21.156;2023-11-21T00:10:57;30.92;;;19.17;;
32198;SDS011;73953;42.656;21.156;2023-11-21T00:13:27;35.95;;;18.00;;
32198;SDS011;73953;42.656;21.156;2023-11-21T00:15:54;29.80;;;19.05;;
32198;SDS011;73953;42.656;21.156;2023-11-21T00:18:21;28.60;;;17.52;;
32198;SDS011;73953;42.656;21.156;2023-11-21T00:20:48;28.00;;;17.55;;
32198;SDS011;73953;42.656;21.156;2023-11-21T00:23:16;28.33;;;17.25;;
32198;SDS011;73953;42.656;21.156;2023-11-21T00:25:43;28.05;;;17.10;;
32198;SDS011;73953;42.656;21.156;2023-11-21T00:28:11;31.20;;;17.85;;
32198;SDS011;73953;42.656;21.156;2023-11-21T00:30:37;29.38;;;17.30;;
32198;SDS011;73953;42.656;21.156;2023-11-21T00:33:04;24.80;;;16.30;;
32198;SDS011;73953;42.656;21.156;2023-11-21T00:35:32;28.00;;;18.75;;
32198;SDS011;73953;42.656;21.156;2023-11-21T00:37:59;29.30;;;17.23;;
32198;SDS011;73953;42.656;21.156;2023-11-21T00:40:26;26.42;;;16.50;;
32198;SDS011;73953;42.656;21.156;2023-11-21T00:42:53;25.80;;;16.55;;
32198;SDS011;73953;42.656;21.156;2023-11-21T00:45:20;26.35;;;17.83;;
32198;SDS011;73953;42.656;21.156;2023-11-21T00:47:47;42.22;;;24.60;;
32198;SDS011;73953;42.656;21.156;2023-11-21T00:50:14;50.78;;;29.17;;
32198;SDS011;73953;42.656;21.156;2023-11-21T00:52:42;46.20;;;28.25;;
32198;SDS011;73953;42.656;21.156;2023-11-21T00:55:09;52.10;;;30.10;;
32198;SDS011;73953;42.656;21.156;2023-11-21T00:57:37;51.40;;;32.40;;
32198;SDS011;73953;42.656;21.156;2023-11-21T01:00:04;55.80;;;34.33;;
32198;SDS011;73953;42.656;21.156;2023-11-21T01:02:40;51.65;;;31.40;;
32198;SDS011;73953;42.656;21.156;2023-11-21T01:05:07;57.53;;;34.15;;
32198;SDS011;73953;42.656;21.156;2023-11-21T01:07:34;58.70;;;32.38;;
32198;SDS011;73953;42.656;21.156;2023-11-21T01:10:03;52.30;;;28.75;;
32198;SDS011;73953;42.656;21.156;2023-11-21T01:12:34;48.35;;;29.35;;
32198;SDS011;73953;42.656;21.156;2023-11-21T01:15:02;46.70;;;26.33;;
32198;SDS011;73953;42.656;21.156;2023-11-21T01:17:29;43.00;;;24.23;;
32198;SDS011;73953;42.656;21.156;2023-11-21T01:19:56;36.38;;;23.42;;
32198;SDS011;73953;42.656;21.156;2023-11-21T01:22:24;39.35;;;22.58;;
32198;SDS011;73953;42.656;21.156;2023-11-21T01:24:53;37.53;;;22.08;;
32198;SDS011;73953;42.656;21.156;2023-11-21T01:27:21;36.05;;;21.77;;
32198;SDS011;73953;42.656;21.156;2023-11-21T01:29:48;38.30;;;22.63;;
32198;SDS011;73953;42.656;21.156;2023-11-21T01:32:15;40.03;;;22.17;;
32198;SDS011;73953;42.656;21.156;2023-11-21T01:34:42;39.83;;;23.73;;
32198;SDS011;73953;42.656;21.156;2023-11-21T01:37:09;36.65;;;23.15;;
32198;SDS011;73953;42.656;21.156;2023-11-21T01:39:40;40.13;;;22.00;;
32198;SDS011;73953;42.656;21.156;2023-11-21T01:42:07;46.90;;;21.05;;
32198;SDS011;73953;42.656;21.156;2023-11-21T01:44:34;31.10;;;20.08;;
32198;SDS011;73953;42.656;21.156;2023-11-21T01:47:01;33.60;;;19.38;;
32198;SDS011;73953;42.656;21.156;2023-11-21T01:49:35;33.58;;;20.15;;
32198;SDS011;73953;42.656;21.156;2023-11-21T01:52:02;30.77;;;19.15;;
32198;SDS011;73953;42.656;21.156;2023-11-21T01:54:31;29.67;;;20.13;;
32198;SDS011;73953;42.656;21.156;2023-11-21T01:56:58;37.90;;;20.52;;
32198;SDS011;73953;42.656;21.156;2023-11-21T02:01:58;31.42;;;18.48;;
32198;SDS011;73953;42.656;21.156;2023-11-21T02:04:25;32.05;;;18.85;;
32198;SDS011;73953;42.656;21.156;2023-11-21T02:06:52;28.10;;;18.63;;
32198;SDS011;73953;42.656;21.156;2023-11-21T02:09:22;30.45;;;17.38;;
32198;SDS011;73953;42.656;21.156;2023-11-21T02:11:49;28.30;;;16.87;;
32198;SDS011;73953;42.656;21.156;2023-11-21T02:14:16;25.33;;;16.52;;
32198;SDS011;73953;42.656;21.156;2023-11-21T02:16:47;25.98;;;16.58;;
32198;SDS011;73953;42.656;21.156;2023-11-21T02:19:17;31.48;;;16.85;;
32198;SDS011;73953;42.656;21.156;2023-11-21T02:21:46;28.98;;;16.67;;
32198;SDS011;73953;42.656;21.156;2023-11-21T02:24:14;31.63;;;17.45;;
32198;SDS011;73953;42.656;21.156;2023-11-21T02:26:42;26.20;;;17.58;;
32198;SDS011;73953;42.656;21.156;2023-11-21T02:29:09;27.52;;;17.20;;
32198;SDS011;73953;42.656;21.156;2023-11-21T02:31:39;30.35;;;17.98;;
32198;SDS011;73953;42.656;21.156;2023-11-21T02:34:15;31.63;;;18.20;;
32198;SDS011;73953;42.656;21.156;2023-11-21T02:36:43;30.15;;;18.10;;
32198;SDS011;73953;42.656;21.156;2023-11-21T02:39:10;29.65;;;18.73;;
32198;SDS011;73953;42.656;21.156;2023-11-21T02:41:38;32.53;;;18.77;;
32198;SDS011;73953;42.656;21.156;2023-11-21T02:44:05;28.08;;;18.33;;
32198;SDS011;73953;42.656;21.156;2023-11-21T02:46:36;32.47;;;19.90;;
32198;SDS011;73953;42.656;21.156;2023-11-21T02:49:03;34.63;;;18.77;;
32198;SDS011;73953;42.656;21.156;2023-11-21T02:51:33;30.70;;;19.95;;
32198;SDS011;73953;42.656;21.156;2023-11-21T02:54:00;30.98;;;19.08;;
32198;SDS011;73953;42.656;21.156;2023-11-21T02:56:29;30.63;;;18.25;;
32198;SDS011;73953;42.656;21.156;2023-11-21T02:58:56;34.85;;;18.85;;
32198;SDS011;73953;42.656;21.156;2023-11-21T03:01:23;32.03;;;19.42;;
32198;SDS011;73953;42.656;21.156;2023-11-21T03:03:51;34.58;;;19.17;;
32198;SDS011;73953;42.656;21.156;2023-11-21T03:06:21;33.13;;;19.42;;
32198;SDS011;73953;42.656;21.156;2023-11-21T03:08:48;30.80;;;19.38;;
32198;SDS011;73953;42.656;21.156;2023-11-21T03:11:15;33.97;;;19.90;;
32198;SDS011;73953;42.656;21.156;2023-11-21T03:13:42;30.73;;;19.08;;
32198;SDS011;73953;42.656;21.156;2023-11-21T03:16:10;36.35;;;19.63;;
32198;SDS011;73953;42.656;21.156;2023-11-21T03:18:38;30.63;;;18.83;;
32198;SDS011;73953;42.656;21.156;2023-11-21T03:21:05;37.95;;;19.83;;
32198;SDS011;73953;42.656;21.156;2023-11-21T03:23:32;35.45;;;20.52;;
32198;SDS011;73953;42.656;21.156;2023-11-21T03:25:59;43.35;;;22.85;;
32198;SDS011;73953;42.656;21.156;2023-11-21T03:28:26;51.10;;;22.65;;
32198;SDS011;73953;42.656;21.156;2023-11-21T03:30:54;46.10;;;24.67;;
32198;SDS011;73953;42.656;21.156;2023-11-21T03:33:21;51.38;;;25.15;;
32198;SDS011;73953;42.656;21.156;2023-11-21T03:35:48;51.40;;;24.70;;
32198;SDS011;73953;42.656;21.156;2023-11-21T03:38:16;47.03;;;24.80;;
32198;SDS011;73953;42.656;21.156;2023-11-21T03:40:43;45.53;;;23.45;;
32198;SDS011;73953;42.656;21.156;2023-11-21T03:43:10;42.42;;;23.42;;
32198;SDS011;73953;42.656;21.156;2023-11-21T03:45:37;36.47;;;22.45;;
32198;SDS011;73953;42.656;21.156;2023-11-21T03:48:04;36.90;;;23.73;;
32198;SDS011;73953;42.656;21.156;2023-11-21T03:50:31;44.65;;;26.58;;
32198;SDS011;73953;42.656;21.156;2023-11-21T03:52:58;50.03;;;29.88;;
32198;SDS011;73953;42.656;21.156;2023-11-21T03:55:25;46.08;;;28.63;;
32198;SDS011;73953;42.656;21.156;2023-11-21T03:57:52;40.30;;;27.15;;
32198;SDS011;73953;42.656;21.156;2023-11-21T04:00:19;39.35;;;26.23;;
32198;SDS011;73953;42.656;21.156;2023-11-21T04:02:49;40.75;;;26.25;;
32198;SDS011;73953;42.656;21.156;2023-11-21T04:05:19;43.38;;;26.70;;
32198;SDS011;73953;42.656;21.156;2023-11-21T04:07:46;38.72;;;26.42;;
32198;SDS011;73953;42.656;21.156;2023-11-21T04:10:13;40.80;;;26.60;;
32198;SDS011;73953;42.656;21.156;2023-11-21T04:12:41;42.80;;;27.73;;
32198;SDS011;73953;42.656;21.156;2023-11-21T04:15:08;48.78;;;28.38;;
32198;SDS011;73953;42.656;21.156;2023-11-21T04:17:35;39.08;;;26.35;;
32198;SDS011;73953;42.656;21.156;2023-11-21T04:20:04;39.60;;;26.38;;
32198;SDS011;73953;42.656;21.156;2023-11-21T04:22:37;42.70;;;27.33;;
32198;SDS011;73953;42.656;21.156;2023-11-21T04:25:08;44.83;;;27.13;;
32198;SDS011;73953;42.656;21.156;2023-11-21T04:27:35;47.00;;;29.45;;
32198;SDS011;73953;42.656;21.156;2023-11-21T04:30:02;46.35;;;29.52;;
32198;SDS011;73953;42.656;21.156;2023-11-21T04:32:29;46.08;;;28.85;;
32198;SDS011;73953;42.656;21.156;2023-11-21T04:34:56;42.88;;;27.20;;
32198;SDS011;73953;42.656;21.156;2023-11-21T04:37:23;42.00;;;26.35;;
32198;SDS011;73953;42.656;21.156;2023-11-21T04:39:51;36.38;;;23.92;;
32198;SDS011;73953;42.656;21.156;2023-11-21T04:42:18;37.90;;;24.88;;
32198;SDS011;73953;42.656;21.156;2023-11-21T04:44:45;44.47;;;26.42;;
32198;SDS011;73953;42.656;21.156;2023-11-21T04:47:12;38.15;;;25.08;;
32198;SDS011;73953;42.656;21.156;2023-11-21T04:49:41;38.35;;;26.13;;
32198;SDS011;73953;42.656;21.156;2023-11-21T04:52:09;42.80;;;26.98;;
32198;SDS011;73953;42.656;21.156;2023-11-21T04:54:36;44.42;;;27.38;;
32198;SDS011;73953;42.656;21.156;2023-11-21T04:57:03;52.47;;;29.85;;
32198;SDS011;73953;42.656;21.156;2023-11-21T04:59:31;44.65;;;28.23;;
32198;SDS011;73953;42.656;21.156;2023-11-21T05:01:57;43.72;;;26.67;;
32198;SDS011;73953;42.656;21.156;2023-11-21T05:04:26;39.63;;;24.35;;
32198;SDS011;73953;42.656;21.156;2023-11-21T05:06:54;37.50;;;23.08;;
32198;SDS011;73953;42.656;21.156;2023-11-21T05:09:21;32.60;;;20.92;;
32198;SDS011;73953;42.656;21.156;2023-11-21T05:11:49;34.47;;;22.30;;
32198;SDS011;73953;42.656;21.156;2023-11-21T05:14:16;37.92;;;24.13;;
32198;SDS011;73953;42.656;21.156;2023-11-21T05:16:43;39.20;;;25.48;;
32198;SDS011;73953;42.656;21.156;2023-11-21T05:19:10;38.25;;;25.38;;
32198;SDS011;73953;42.656;21.156;2023-11-21T05:21:40;41.22;;;25.55;;
32198;SDS011;73953;42.656;21.156;2023-11-21T05:24:07;45.95;;;25.88;;
32198;SDS011;73953;42.656;21.156;2023-11-21T05:26:34;42.38;;;25.92;;
32198;SDS011;73953;42.656;21.156;2023-11-21T05:29:01;43.33;;;27.15;;
32198;SDS011;73953;42.656;21.156;2023-11-21T05:31:28;45.58;;;28.80;;
32198;SDS011;73953;42.656;21.156;2023-11-21T05:33:55;46.20;;;29.17;;
32198;SDS011;73953;42.656;21.156;2023-11-21T05:36:22;49.88;;;29.88;;
32198;SDS011;73953;42.656;21.156;2023-11-21T05:38:49;54.65;;;32.63;;
32198;SDS011;73953;42.656;21.156;2023-11-21T05:41:16;54.17;;;33.80;;
32198;SDS011;73953;42.656;21.156;2023-11-21T05:43:43;56.40;;;32.80;;
32198;SDS011;73953;42.656;21.156;2023-11-21T05:46:11;55.70;;;32.78;;
32198;SDS011;73953;42.656;21.156;2023-11-21T05:48:40;52.05;;;33.75;;
32198;SDS011;73953;42.656;21.156;2023-11-21T05:51:07;61.67;;;35.00;;
32198;SDS011;73953;42.656;21.156;2023-11-21T05:53:35;58.03;;;34.63;;
32198;SDS011;73953;42.656;21.156;2023-11-21T05:56:02;57.10;;;34.40;;
32198;SDS011;73953;42.656;21.156;2023-11-21T05:58:30;60.20;;;34.47;;
32198;SDS011;73953;42.656;21.156;2023-11-21T06:00:58;56.83;;;34.50;;
32198;SDS011;73953;42.656;21.156;2023-11-21T06:03:24;54.47;;;34.22;;
32198;SDS011;73953;42.656;21.156;2023-11-21T06:05:52;45.28;;;29.83;;
32198;SDS011;73953;42.656;21.156;2023-11-21T06:08:19;48.33;;;31.88;;
32198;SDS011;73953;42.656;21.156;2023-11-21T06:10:46;51.45;;;31.23;;
32198;SDS011;73953;42.656;21.156;2023-11-21T06:13:16;48.25;;;30.55;;
32198;SDS011;73953;42.656;21.156;2023-11-21T06:15:43;57.75;;;34.35;;
32198;SDS011;73953;42.656;21.156;2023-11-21T06:18:10;83.25;;;38.10;;
32198;SDS011;73953;42.656;21.156;2023-11-21T06:20:41;68.45;;;39.70;;
32198;SDS011;73953;42.656;21.156;2023-11-21T06:23:08;73.57;;;37.63;;
32198;SDS011;73953;42.656;21.156;2023-11-21T06:25:35;64.60;;;38.88;;
32198;SDS011;73953;42.656;21.156;2023-11-21T06:28:03;77.80;;;40.42;;
32198;SDS011;73953;42.656;21.156;2023-11-21T06:30:30;79.15;;;41.67;;
32198;SDS011;73953;42.656;21.156;2023-11-21T06:32:57;82.40;;;43.13;;
32198;SDS011;73953;42.656;21.156;2023-11-21T06:35:26;68.30;;;40.63;;
32198;SDS011;73953;42.656;21.156;2023-11-21T06:37:57;76.55;;;42.38;;
32198;SDS011;73953;42.656;21.156;2023-11-21T06:40:24;69.68;;;40.13;;
32198;SDS011;73953;42.656;21.156;2023-11-21T06:42:51;76.22;;;42.53;;
32198;SDS011;73953;42.656;21.156;2023-11-21T06:45:18;77.15;;;42.40;;
32198;SDS011;73953;42.656;21.156;2023-11-21T06:47:47;69.47;;;42.28;;
32198;SDS011;73953;42.656;21.156;2023-11-21T06:50:14;84.70;;;46.13;;
32198;SDS011;73953;42.656;21.156;2023-11-21T06:52:41;77.07;;;46.65;;
32198;SDS011;73953;42.656;21.156;2023-11-21T06:55:08;90.22;;;46.47;;
32198;SDS011;73953;42.656;21.156;2023-11-21T06:57:36;79.45;;;43.83;;
32198;SDS011;73953;42.656;21.156;2023-11-21T07:00:04;39.28;;;20.20;;
32198;SDS011;73953;42.656;21.156;2023-11-21T07:02:31;53.45;;;33.92;;
32198;SDS011;73953;42.656;21.156;2023-11-21T07:04:58;84.07;;;47.80;;
32198;SDS011;73953;42.656;21.156;2023-11-21T07:07:26;80.15;;;46.55;;
32198;SDS011;73953;42.656;21.156;2023-11-21T07:09:53;75.65;;;45.13;;
32198;SDS011;73953;42.656;21.156;2023-11-21T07:12:20;59.22;;;38.72;;
32198;SDS011;73953;42.656;21.156;2023-11-21T07:14:50;59.95;;;36.70;;
32198;SDS011;73953;42.656;21.156;2023-11-21T07:17:17;58.30;;;34.60;;
32198;SDS011;73953;42.656;21.156;2023-11-21T07:19:44;42.83;;;25.67;;
32198;SDS011;73953;42.656;21.156;2023-11-21T07:22:12;47.60;;;30.00;;
32198;SDS011;73953;42.656;21.156;2023-11-21T07:24:39;54.65;;;31.83;;
32198;SDS011;73953;42.656;21.156;2023-11-21T07:27:07;55.65;;;33.28;;
32198;SDS011;73953;42.656;21.156;2023-11-21T07:29:34;57.50;;;33.53;;
32198;SDS011;73953;42.656;21.156;2023-11-21T07:32:01;55.58;;;34.35;;
32198;SDS011;73953;42.656;21.156;2023-11-21T07:34:28;62.15;;;36.45;;
32198;SDS011;73953;42.656;21.156;2023-11-21T07:36:56;73.47;;;41.13;;
32198;SDS011;73953;42.656;21.156;2023-11-21T07:39:23;89.30;;;45.92;;
32198;SDS011;73953;42.656;21.156;2023-11-21T07:41:50;95.32;;;46.75;;
32198;SDS011;73953;42.656;21.156;2023-11-21T07:44:17;113.10;;;56.63;;
32198;SDS011;73953;42.656;21.156;2023-11-21T07:46:44;142.00;;;66.95;;
32198;SDS011;73953;42.656;21.156;2023-11-21T07:49:12;230.27;;;109.40;;
32198;SDS011;73953;42.656;21.156;2023-11-21T07:51:43;133.88;;;62.95;;
32198;SDS011;73953;42.656;21.156;2023-11-21T07:54:11;120.63;;;57.95;;
32198;SDS011;73953;42.656;21.156;2023-11-21T07:56:38;112.05;;;55.33;;
32198;SDS011;73953;42.656;21.156;2023-11-21T07:59:05;103.15;;;53.33;;
32198;SDS011;73953;42.656;21.156;2023-11-21T08:01:32;120.22;;;57.85;;
32198;SDS011;73953;42.656;21.156;2023-11-21T08:04:00;118.60;;;56.00;;
32198;SDS011;73953;42.656;21.156;2023-11-21T08:06:31;117.88;;;57.00;;
32198;SDS011;73953;42.656;21.156;2023-11-21T08:08:58;114.05;;;57.75;;
32198;SDS011;73953;42.656;21.156;2023-11-21T08:11:25;121.68;;;62.58;;
32198;SDS011;73953;42.656;21.156;2023-11-21T08:13:59;158.00;;;72.28;;
32198;SDS011;73953;42.656;21.156;2023-11-21T08:16:28;120.50;;;55.92;;
32198;SDS011;73953;42.656;21.156;2023-11-21T08:18:57;80.97;;;44.08;;
32198;SDS011;73953;42.656;21.156;2023-11-21T08:21:23;79.10;;;44.92;;
32198;SDS011;73953;42.656;21.156;2023-11-21T08:23:51;80.55;;;42.25;;
32198;SDS011;73953;42.656;21.156;2023-11-21T08:26:23;72.50;;;42.08;;
32198;SDS011;73953;42.656;21.156;2023-11-21T08:28:50;75.93;;;42.72;;
32198;SDS011;73953;42.656;21.156;2023-11-21T08:31:28;75.68;;;40.42;;
32198;SDS011;73953;42.656;21.156;2023-11-21T08:33:55;78.70;;;42.58;;
32198;SDS011;73953;42.656;21.156;2023-11-21T08:36:23;73.35;;;43.90;;
32198;SDS011;73953;42.656;21.156;2023-11-21T08:38:51;66.82;;;41.10;;
32198;SDS011;73953;42.656;21.156;2023-11-21T08:41:22;73.72;;;42.92;;
32198;SDS011;73953;42.656;21.156;2023-11-21T08:43:50;76.00;;;43.28;;
32198;SDS011;73953;42.656;21.156;2023-11-21T08:46:18;76.07;;;45.00;;
32198;SDS011;73953;42.656;21.156;2023-11-21T08:48:45;75.88;;;40.65;;
32198;SDS011;73953;42.656;21.156;2023-11-21T08:51:12;66.80;;;43.15;;
32198;SDS011;73953;42.656;21.156;2023-11-21T08:53:41;70.70;;;42.03;;
32198;SDS011;73953;42.656;21.156;2023-11-21T08:56:11;72.97;;;42.60;;
32198;SDS011;73953;42.656;21.156;2023-11-21T08:58:38;79.53;;;45.77;;
32198;SDS011;73953;42.656;21.156;2023-11-21T09:01:06;65.25;;;40.63;;
32198;SDS011;73953;42.656;21.156;2023-11-21T09:03:34;66.60;;;38.40;;
32198;SDS011;73953;42.656;21.156;2023-11-21T09:06:01;65.63;;;39.35;;
32198;SDS011;73953;42.656;21.156;2023-11-21T09:08:28;58.38;;;39.05;;
32198;SDS011;73953;42.656;21.156;2023-11-21T09:10:56;90.78;;;44.50;;
32198;SDS011;73953;42.656;21.156;2023-11-21T09:13:23;98.35;;;50.50;;
32198;SDS011;73953;42.656;21.156;2023-11-21T09:15:52;70.72;;;43.33;;
32198;SDS011;73953;42.656;21.156;2023-11-21T09:18:19;82.22;;;44.33;;
32198;SDS011;73953;42.656;21.156;2023-11-21T09:20:46;74.93;;;42.92;;
32198;SDS011;73953;42.656;21.156;2023-11-21T09:23:13;74.05;;;44.85;;
32198;SDS011;73953;42.656;21.156;2023-11-21T09:25:40;165.25;;;83.60;;
32198;SDS011;73953;42.656;21.156;2023-11-21T09:28:07;65.18;;;39.92;;
32198;SDS011;73953;42.656;21.156;2023-11-21T09:30:35;68.35;;;40.90;;
32198;SDS011;73953;42.656;21.156;2023-11-21T09:33:03;68.32;;;41.60;;
32198;SDS011;73953;42.656;21.156;2023-11-21T09:35:32;72.78;;;42.38;;
32198;SDS011;73953;42.656;21.156;2023-11-21T09:37:59;78.95;;;46.17;;
32198;SDS011;73953;42.656;21.156;2023-11-21T09:40:28;97.57;;;50.20;;
32198;SDS011;73953;42.656;21.156;2023-11-21T09:42:57;65.00;;;42.83;;
32198;SDS011;73953;42.656;21.156;2023-11-21T09:45:28;76.53;;;46.17;;
32198;SDS011;73953;42.656;21.156;2023-11-21T09:47:56;81.53;;;48.90;;
32198;SDS011;73953;42.656;21.156;2023-11-21T09:50:23;305.95;;;143.65;;
32198;SDS011;73953;42.656;21.156;2023-11-21T09:52:54;94.60;;;57.60;;
32198;SDS011;73953;42.656;21.156;2023-11-21T09:55:26;68.03;;;42.15;;
32198;SDS011;73953;42.656;21.156;2023-11-21T09:57:54;66.82;;;40.90;;
32198;SDS011;73953;42.656;21.156;2023-11-21T10:00:21;71.47;;;44.22;;
32198;SDS011;73953;42.656;21.156;2023-11-21T10:02:53;66.03;;;43.05;;
32198;SDS011;73953;42.656;21.156;2023-11-21T10:05:21;72.45;;;45.45;;
32198;SDS011;73953;42.656;21.156;2023-11-21T10:07:52;69.20;;;46.95;;
32198;SDS011;73953;42.656;21.156;2023-11-21T10:10:20;85.40;;;55.08;;
32198;SDS011;73953;42.656;21.156;2023-11-21T10:12:49;83.47;;;54.33;;
32198;SDS011;73953;42.656;21.156;2023-11-21T10:15:21;86.05;;;55.42;;
32198;SDS011;73953;42.656;21.156;2023-11-21T10:17:52;102.93;;;65.03;;
32198;SDS011;73953;42.656;21.156;2023-11-21T10:20:20;102.18;;;63.00;;
32198;SDS011;73953;42.656;21.156;2023-11-21T10:22:48;301.23;;;151.85;;
32198;SDS011;73953;42.656;21.156;2023-11-21T10:25:15;202.50;;;111.10;;
32198;SDS011;73953;42.656;21.156;2023-11-21T10:27:44;179.00;;;102.97;;
32198;SDS011;73953;42.656;21.156;2023-11-21T10:30:13;246.02;;;139.70;;
32198;SDS011;73953;42.656;21.156;2023-11-21T10:32:42;179.40;;;103.47;;
32198;SDS011;73953;42.656;21.156;2023-11-21T10:35:10;129.93;;;83.53;;
32198;SDS011;73953;42.656;21.156;2023-11-21T10:37:40;127.38;;;78.15;;
32198;SDS011;73953;42.656;21.156;2023-11-21T10:40:07;126.90;;;76.25;;
32198;SDS011;73953;42.656;21.156;2023-11-21T10:45:06;120.07;;;78.93;;
32198;SDS011;73953;42.656;21.156;2023-11-21T10:47:41;130.68;;;77.88;;
32198;SDS011;73953;42.656;21.156;2023-11-21T10:50:08;180.65;;;96.38;;
32198;SDS011;73953;42.656;21.156;2023-11-21T10:52:41;126.43;;;78.13;;
32198;SDS011;73953;42.656;21.156;2023-11-21T10:55:19;130.63;;;78.63;;
32198;SDS011;73953;42.656;21.156;2023-11-21T10:57:48;114.30;;;73.03;;
32198;SDS011;73953;42.656;21.156;2023-11-21T11:00:16;102.72;;;65.32;;
32198;SDS011;73953;42.656;21.156;2023-11-21T11:02:43;127.22;;;68.30;;
32198;SDS011;73953;42.656;21.156;2023-11-21T11:05:10;68.65;;;43.70;;
32198;SDS011;73953;42.656;21.156;2023-11-21T11:07:38;57.92;;;35.63;;
32198;SDS011;73953;42.656;21.156;2023-11-21T11:10:08;59.00;;;35.55;;
32198;SDS011;73953;42.656;21.156;2023-11-21T11:12:41;51.55;;;32.58;;
32198;SDS011;73953;42.656;21.156;2023-11-21T11:15:08;54.83;;;35.13;;
32198;SDS011;73953;42.656;21.156;2023-11-21T11:17:36;73.60;;;45.00;;
32198;SDS011;73953;42.656;21.156;2023-11-21T11:20:05;60.60;;;34.30;;
32198;SDS011;73953;42.656;21.156;2023-11-21T11:22:37;51.50;;;32.10;;
32198;SDS011;73953;42.656;21.156;2023-11-21T11:32:47;72.28;;;44.55;;
32198;SDS011;73953;42.656;21.156;2023-11-21T11:35:19;54.88;;;34.83;;
32198;SDS011;73953;42.656;21.156;2023-11-21T11:37:48;61.33;;;38.03;;
32198;SDS011;73953;42.656;21.156;2023-11-21T11:40:15;52.85;;;32.10;;
32198;SDS011;73953;42.656;21.156;2023-11-21T11:42:58;75.90;;;43.28;;
32198;SDS011;73953;42.656;21.156;2023-11-21T11:45:32;68.20;;;39.33;;
32198;SDS011;73953;42.656;21.156;2023-11-21T11:48:00;72.55;;;41.25;;
32198;SDS011;73953;42.656;21.156;2023-11-21T11:50:27;57.65;;;35.33;;
32198;SDS011;73953;42.656;21.156;2023-11-21T11:52:55;64.57;;;39.42;;
32198;SDS011;73953;42.656;21.156;2023-11-21T11:55:24;48.65;;;33.30;;
32198;SDS011;73953;42.656;21.156;2023-11-21T11:57:52;65.25;;;35.45;;
32198;SDS011;73953;42.656;21.156;2023-11-21T12:00:20;60.15;;;36.88;;
32198;SDS011;73953;42.656;21.156;2023-11-21T12:02:49;59.58;;;34.40;;
32198;SDS011;73953;42.656;21.156;2023-11-21T12:05:21;50.25;;;33.78;;
32198;SDS011;73953;42.656;21.156;2023-11-21T12:07:53;65.95;;;36.30;;
32198;SDS011;73953;42.656;21.156;2023-11-21T12:10:21;68.78;;;40.13;;
32198;SDS011;73953;42.656;21.156;2023-11-21T12:12:53;67.20;;;41.25;;
32198;SDS011;73953;42.656;21.156;2023-11-21T12:15:20;66.32;;;38.90;;
32198;SDS011;73953;42.656;21.156;2023-11-21T12:17:50;72.40;;;41.58;;
32198;SDS011;73953;42.656;21.156;2023-11-21T12:20:19;72.88;;;44.92;;
32198;SDS011;73953;42.656;21.156;2023-11-21T12:22:47;78.90;;;47.30;;
32198;SDS011;73953;42.656;21.156;2023-11-21T12:25:17;71.20;;;42.45;;
32198;SDS011;73953;42.656;21.156;2023-11-21T12:27:49;65.47;;;41.63;;
32198;SDS011;73953;42.656;21.156;2023-11-21T12:30:20;72.60;;;47.20;;
32198;SDS011;73953;42.656;21.156;2023-11-21T12:32:49;76.30;;;44.33;;
32198;SDS011;73953;42.656;21.156;2023-11-21T12:35:19;70.50;;;44.05;;
32198;SDS011;73953;42.656;21.156;2023-11-21T12:37:49;70.33;;;42.40;;
32198;SDS011;73953;42.656;21.156;2023-11-21T12:40:16;70.15;;;42.72;;
32198;SDS011;73953;42.656;21.156;2023-11-21T12:42:44;68.18;;;42.72;;
32198;SDS011;73953;42.656;21.156;2023-11-21T12:45:25;73.20;;;45.03;;
32198;SDS011;73953;42.656;21.156;2023-11-21T12:47:56;71.32;;;43.38;;
32198;SDS011;73953;42.656;21.156;2023-11-21T12:50:27;73.32;;;46.63;;
32198;SDS011;73953;42.656;21.156;2023-11-21T12:53:01;61.03;;;42.03;;
32198;SDS011;73953;42.656;21.156;2023-11-21T12:55:30;70.95;;;41.80;;
32198;SDS011;73953;42.656;21.156;2023-11-21T12:57:59;65.80;;;41.78;;
32198;SDS011;73953;42.656;21.156;2023-11-21T13:00:34;62.03;;;40.47;;
32198;SDS011;73953;42.656;21.156;2023-11-21T13:03:04;62.08;;;39.92;;
32198;SDS011;73953;42.656;21.156;2023-11-21T13:05:34;68.32;;;40.83;;
32198;SDS011;73953;42.656;21.156;2023-11-21T13:08:07;73.50;;;45.40;;
32198;SDS011;73953;42.656;21.156;2023-11-21T13:10:35;87.50;;;48.40;;
32198;SDS011;73953;42.656;21.156;2023-11-21T13:13:06;72.88;;;43.55;;
32198;SDS011;73953;42.656;21.156;2023-11-21T13:15:39;102.32;;;56.20;;
32198;SDS011;73953;42.656;21.156;2023-11-21T13:18:07;78.13;;;49.47;;
32198;SDS011;73953;42.656;21.156;2023-11-21T13:20:35;72.45;;;43.30;;
32198;SDS011;73953;42.656;21.156;2023-11-21T13:23:06;66.38;;;40.85;;
32198;SDS011;73953;42.656;21.156;2023-11-21T13:25:35;69.85;;;43.70;;
32198;SDS011;73953;42.656;21.156;2023-11-21T13:28:03;72.45;;;42.65;;
32198;SDS011;73953;42.656;21.156;2023-11-21T13:30:30;69.03;;;43.05;;
32198;SDS011;73953;42.656;21.156;2023-11-21T13:33:03;68.57;;;45.63;;
32198;SDS011;73953;42.656;21.156;2023-11-21T13:35:35;66.07;;;42.88;;
32198;SDS011;73953;42.656;21.156;2023-11-21T13:38:10;75.70;;;44.65;;
32198;SDS011;73953;42.656;21.156;2023-11-21T13:40:38;75.15;;;45.63;;
32198;SDS011;73953;42.656;21.156;2023-11-21T13:43:16;79.50;;;46.53;;
32198;SDS011;73953;42.656;21.156;2023-11-21T13:45:48;79.05;;;45.15;;
32198;SDS011;73953;42.656;21.156;2023-11-21T13:48:18;68.32;;;42.95;;
32198;SDS011;73953;42.656;21.156;2023-11-21T13:50:55;67.80;;;43.22;;
32198;SDS011;73953;42.656;21.156;2023-11-21T13:53:23;65.50;;;41.88;;
32198;SDS011;73953;42.656;21.156;2023-11-21T13:55:50;66.18;;;40.92;;
32198;SDS011;73953;42.656;21.156;2023-11-21T13:58:18;76.25;;;43.80;;
32198;SDS011;73953;42.656;21.156;2023-11-21T14:00:49;75.57;;;43.05;;
32198;SDS011;73953;42.656;21.156;2023-11-21T14:03:24;71.82;;;42.33;;
32198;SDS011;73953;42.656;21.156;2023-11-21T14:05:59;71.20;;;42.40;;
32198;SDS011;73953;42.656;21.156;2023-11-21T14:08:27;71.00;;;45.85;;
32198;SDS011;73953;42.656;21.156;2023-11-21T14:10:57;65.32;;;41.33;;
32198;SDS011;73953;42.656;21.156;2023-11-21T14:13:26;91.40;;;47.60;;
32198;SDS011;73953;42.656;21.156;2023-11-21T14:15:54;79.50;;;49.10;;
32198;SDS011;73953;42.656;21.156;2023-11-21T14:18:29;77.00;;;48.80;;
32198;SDS011;73953;42.656;21.156;2023-11-21T14:21:05;109.43;;;59.08;;
32198;SDS011;73953;42.656;21.156;2023-11-21T14:23:32;109.22;;;60.97;;
32198;SDS011;73953;42.656;21.156;2023-11-21T14:26:02;98.80;;;57.95;;